createdAt,value
2024-01-04T20:34:16.022Z,99055.31
2024-01-04T20:36:43.873Z,99051.53
2024-01-04T20:39:11.221Z,99051.22
2024-01-04T20:41:43.306Z,99053.44
2024-01-04T20:44:09.962Z,99053.69
2024-01-04T20:46:38.729Z,99050.56
2024-01-04T20:49:05.577Z,99060.88
2024-01-04T20:51:32.324Z,99053.34
2024-01-04T20:53:59.134Z,99063.91
2024-01-04T20:56:25.961Z,99066.13
2024-01-04T20:58:52.580Z,99068.56
2024-01-04T21:01:19.415Z,99068.50
2024-01-04T21:03:49.249Z,99068.00
2024-01-04T21:06:15.974Z,99062.75
2024-01-04T21:08:42.942Z,99068.63
2024-01-04T21:11:09.518Z,99068.41
2024-01-04T21:13:36.170Z,99074.72
2024-01-04T21:16:03.704Z,99077.09
2024-01-04T21:18:30.563Z,99083.44
2024-01-04T21:20:57.292Z,99087.47
2024-01-04T21:23:23.988Z,99089.69
2024-01-04T21:25:50.757Z,99085.00
2024-01-04T21:28:18.805Z,99082.44
2024-01-04T21:30:46.114Z,99084.66
2024-01-04T21:33:13.514Z,99088.44
2024-01-04T21:35:40.635Z,99091.94
2024-01-04T21:38:07.284Z,99087.59
2024-01-04T21:40:36.395Z,99085.47
2024-01-04T21:43:05.602Z,99079.16
2024-01-04T21:45:32.482Z,99083.50
2024-01-04T21:47:59.186Z,99096.28
2024-01-04T21:50:26.084Z,99071.81
2024-01-04T21:52:52.738Z,99095.22
2024-01-04T21:55:19.529Z,99107.06
2024-01-04T21:57:46.160Z,99114.34
2024-01-04T22:00:13.620Z,99112.72
2024-01-04T22:02:41.670Z,99110.84
2024-01-04T22:05:14.349Z,99105.34
2024-01-04T22:07:42.178Z,99099.50
2024-01-04T22:10:19.033Z,99105.72
2024-01-04T22:12:52.350Z,99108.91
2024-01-04T22:15:19.041Z,99107.75
2024-01-04T22:17:45.947Z,99106.34
2024-01-04T22:20:12.845Z,99102.63
2024-01-04T22:22:40.412Z,99099.03
2024-01-04T22:25:08.565Z,99100.31
2024-01-04T22:27:35.272Z,99105.38
2024-01-04T22:30:02.231Z,99105.25
2024-01-04T22:32:28.846Z,99118.28
2024-01-04T22:34:55.755Z,99109.75
2024-01-04T22:37:22.316Z,99108.94
2024-01-04T22:39:49.220Z,99112.38
2024-01-04T22:42:16.294Z,99111.75
2024-01-04T22:44:43.914Z,99110.72
2024-01-04T22:47:12.515Z,99115.66
2024-01-04T22:49:39.304Z,99114.00
2024-01-04T22:52:06.316Z,99104.16
2024-01-04T22:54:33.485Z,99108.16
2024-01-04T22:57:00.236Z,99102.03
2024-01-04T22:59:27.290Z,99107.09
2024-01-04T23:01:53.981Z,99092.69
2024-01-04T23:04:21.423Z,99091.88
2024-01-04T23:06:49.036Z,99090.47
2024-01-04T23:09:16.607Z,99090.00
2024-01-04T23:11:43.319Z,99104.16
2024-01-04T23:14:10.063Z,99096.31
2024-01-04T23:16:36.709Z,99103.00
2024-01-04T23:19:03.610Z,99104.63
2024-01-04T23:21:30.526Z,99091.16
2024-01-04T23:23:57.311Z,99081.44
2024-01-04T23:26:27.523Z,99078.97
2024-01-04T23:28:54.688Z,99085.41
2024-01-04T23:31:21.489Z,99086.81
2024-01-04T23:33:49.642Z,99077.22
2024-01-04T23:36:17.136Z,99079.31
2024-01-04T23:38:43.832Z,99082.84
2024-01-04T23:41:10.761Z,99093.72
2024-01-04T23:43:37.397Z,99089.38
2024-01-04T23:46:04.200Z,99086.00
2024-01-04T23:48:30.881Z,99084.81
2024-01-04T23:50:57.721Z,99088.00
2024-01-04T23:53:24.386Z,99082.47
2024-01-04T23:55:51.407Z,99073.09
2024-01-04T23:58:18.224Z,99076.06
